createdAt,value
2023-04-07T00:01:51.292Z,81.99
2023-04-07T00:04:21.245Z,81.62
2023-04-07T00:06:49.973Z,80.26
2023-04-07T00:09:21.422Z,79.68
2023-04-07T00:11:53.079Z,80.02
2023-04-07T00:14:21.488Z,80.75
2023-04-07T00:16:50.038Z,81.65
2023-04-07T00:19:19.945Z,81.75
2023-04-07T00:21:48.540Z,80.49
2023-04-07T00:24:31.013Z,80.30
2023-04-07T00:27:03.117Z,80.77
2023-04-07T00:29:31.592Z,81.51
2023-04-07T00:32:01.335Z,82.49
2023-04-07T00:34:30.080Z,82.12
2023-04-07T00:36:58.347Z,80.63
2023-04-07T00:39:27.798Z,80.42
2023-04-07T00:41:56.662Z,80.91
2023-04-07T00:44:24.989Z,81.41
2023-04-07T00:46:53.910Z,81.91
2023-04-07T00:49:28.603Z,82.47
2023-04-07T00:51:57.741Z,80.80
2023-04-07T00:54:27.978Z,80.07
2023-04-07T00:56:57.671Z,80.54
2023-04-07T00:59:26.459Z,81.69
2023-04-07T01:02:11.675Z,82.58
2023-04-07T01:04:47.492Z,82.99
2023-04-07T01:07:19.394Z,81.71
2023-04-07T01:10:02.474Z,81.59
2023-04-07T01:12:52.452Z,82.25
2023-04-07T01:15:23.390Z,83.18
2023-04-07T01:18:00.240Z,84.02
2023-04-07T01:20:29.165Z,82.67
2023-04-07T01:23:04.511Z,81.00
2023-04-07T01:25:53.195Z,80.57
2023-04-07T01:28:54.094Z,81.63
2023-04-07T01:31:23.254Z,82.66
2023-04-07T01:33:53.544Z,82.52
2023-04-07T01:36:22.610Z,81.42
2023-04-07T01:38:51.807Z,81.41
2023-04-07T01:41:21.836Z,82.47
2023-04-07T01:43:50.013Z,83.08
2023-04-07T01:46:18.995Z,83.55
2023-04-07T01:48:48.394Z,82.13
2023-04-07T01:51:19.232Z,81.77
2023-04-07T01:53:48.192Z,82.10
2023-04-07T01:56:17.016Z,82.78
2023-04-07T01:58:49.296Z,83.83
2023-04-07T02:01:20.693Z,83.10
2023-04-07T02:04:08.924Z,81.51
2023-04-07T02:06:49.402Z,81.67
2023-04-07T02:09:20.933Z,82.48
2023-04-07T02:11:49.897Z,83.63
2023-04-07T02:14:20.616Z,83.54
2023-04-07T02:16:58.619Z,82.08
2023-04-07T02:19:27.815Z,82.20
2023-04-07T02:21:56.399Z,82.90
2023-04-07T02:24:26.623Z,83.68
2023-04-07T02:26:55.137Z,82.89
2023-04-07T02:29:23.688Z,82.26
2023-04-07T02:31:52.139Z,82.46
2023-04-07T02:34:20.789Z,83.41
2023-04-07T02:36:49.266Z,84.00
2023-04-07T02:39:17.918Z,83.02
2023-04-07T02:41:46.503Z,82.29
2023-04-07T02:44:15.288Z,82.59
2023-04-07T02:46:45.005Z,83.16
2023-04-07T02:49:13.789Z,83.79
2023-04-07T02:51:42.873Z,82.95
2023-04-07T02:54:11.289Z,81.12
2023-04-07T02:56:40.558Z,80.91
2023-04-07T02:59:16.620Z,81.61
2023-04-07T03:01:47.811Z,82.24
2023-04-07T03:04:17.061Z,82.49
2023-04-07T03:06:46.150Z,81.29
2023-04-07T03:09:17.238Z,81.11
2023-04-07T03:11:45.987Z,81.64
2023-04-07T03:14:14.873Z,82.28
2023-04-07T03:16:51.173Z,82.38
2023-04-07T03:19:22.489Z,81.01
2023-04-07T03:21:52.094Z,80.37
2023-04-07T03:24:21.821Z,80.57
2023-04-07T03:26:51.545Z,81.21
2023-04-07T03:29:25.621Z,82.15
2023-04-07T03:31:55.639Z,81.88
2023-04-07T03:34:25.662Z,80.45
2023-04-07T03:36:54.351Z,80.42
2023-04-07T03:39:23.287Z,80.94
2023-04-07T03:41:52.332Z,81.56
2023-04-07T03:44:21.524Z,82.09
2023-04-07T03:46:51.032Z,80.59
2023-04-07T03:49:20.189Z,79.78
2023-04-07T03:51:50.650Z,80.07
2023-04-07T03:54:19.950Z,80.75
2023-04-07T03:56:48.431Z,81.63
2023-04-07T03:59:23.274Z,81.51
2023-04-07T04:02:00.241Z,80.45
2023-04-07T04:04:29.908Z,80.29
2023-04-07T04:06:59.057Z,81.33
2023-04-07T04:09:42.386Z,82.83
2023-04-07T04:12:11.701Z,83.32
2023-04-07T04:14:46.211Z,82.78
2023-04-07T04:17:16.538Z,82.75
2023-04-07T04:19:47.576Z,83.19
2023-04-07T04:22:24.259Z,83.71
2023-04-07T04:24:55.599Z,82.43
2023-04-07T04:27:26.737Z,81.83
2023-04-07T04:30:02.495Z,81.93
2023-04-07T04:32:41.649Z,82.82
2023-04-07T04:35:10.616Z,82.74
2023-04-07T04:37:46.476Z,80.86
2023-04-07T04:40:18.847Z,80.21
2023-04-07T04:42:50.083Z,80.44
2023-04-07T04:45:19.821Z,81.45
2023-04-07T04:47:52.641Z,81.47
2023-04-07T04:50:21.162Z,80.32
2023-04-07T04:52:50.355Z,79.92
2023-04-07T04:55:24.163Z,80.60
2023-04-07T04:57:53.475Z,81.64
2023-04-07T05:00:36.899Z,81.42
2023-04-07T05:03:09.182Z,80.47
2023-04-07T05:05:40.008Z,80.70
2023-04-07T05:08:11.393Z,81.54
2023-04-07T05:10:41.363Z,82.09
2023-04-07T05:13:13.119Z,80.38
2023-04-07T05:15:42.936Z,79.65
2023-04-07T05:18:13.560Z,80.04
2023-04-07T05:20:44.913Z,80.65
2023-04-07T05:23:17.203Z,81.43
2023-04-07T05:25:47.923Z,80.28
2023-04-07T05:28:16.951Z,78.62
2023-04-07T05:30:51.435Z,78.82
2023-04-07T05:33:21.861Z,79.10
2023-04-07T05:35:53.857Z,80.15
2023-04-07T05:38:22.609Z,80.59
2023-04-07T05:40:51.843Z,77.89
2023-04-07T05:43:33.607Z,76.31
2023-04-07T05:46:02.216Z,76.62
2023-04-07T05:48:31.687Z,76.94
2023-04-07T05:51:00.986Z,77.73
2023-04-07T05:53:30.195Z,78.24
2023-04-07T05:55:59.394Z,75.85
2023-04-07T05:58:41.789Z,74.92
2023-04-07T06:01:11.701Z,75.00
2023-04-07T06:03:41.516Z,75.34
2023-04-07T06:06:13.682Z,75.01
2023-04-07T06:08:42.375Z,75.51
2023-04-07T06:11:12.283Z,75.99
2023-04-07T06:13:41.278Z,74.54
2023-04-07T06:16:12.977Z,72.74
2023-04-07T06:18:42.538Z,73.07
2023-04-07T06:21:11.225Z,74.24
2023-04-07T06:23:43.596Z,74.76
2023-04-07T06:26:12.484Z,74.95
2023-04-07T06:28:41.074Z,75.90
2023-04-07T06:31:10.105Z,73.92
2023-04-07T06:33:40.103Z,72.82
2023-04-07T06:36:09.284Z,73.37
2023-04-07T06:38:38.476Z,73.38
2023-04-07T06:41:09.003Z,74.49
2023-04-07T06:43:37.894Z,75.41
2023-04-07T06:46:09.750Z,76.08
2023-04-07T06:48:38.540Z,74.69
2023-04-07T06:51:07.632Z,72.49
2023-04-07T06:53:36.834Z,71.77
2023-04-07T06:56:05.211Z,72.86
2023-04-07T06:58:35.125Z,73.42
2023-04-07T07:01:09.532Z,74.17
2023-04-07T07:11:22.724Z,73.77
2023-04-07T07:13:51.525Z,73.10
2023-04-07T07:16:20.354Z,73.96
2023-04-07T07:18:56.353Z,75.44
2023-04-07T07:21:26.162Z,74.88
2023-04-07T07:23:55.158Z,73.82
2023-04-07T07:26:23.740Z,72.98
2023-04-07T07:28:52.331Z,72.50
2023-04-07T07:31:21.272Z,73.74
2023-04-07T07:33:52.058Z,74.08
2023-04-07T07:36:20.757Z,74.94
2023-04-07T07:38:51.838Z,74.39
2023-04-07T07:41:21.489Z,73.56
2023-04-07T07:43:50.876Z,72.78
2023-04-07T07:46:19.324Z,72.85
2023-04-07T07:48:50.018Z,73.49
2023-04-07T07:51:18.572Z,74.90
2023-04-07T07:53:47.463Z,74.58
2023-04-07T07:56:16.160Z,72.06
2023-04-07T07:58:44.937Z,71.36
2023-04-07T08:01:18.336Z,71.41
2023-04-07T08:03:48.468Z,72.48
2023-04-07T08:06:18.161Z,72.00
2023-04-07T08:08:47.154Z,73.48
2023-04-07T08:11:15.647Z,73.91
2023-04-07T08:13:47.244Z,73.46
2023-04-07T08:16:16.670Z,72.91
2023-04-07T08:18:45.067Z,71.58
2023-04-07T08:21:14.196Z,71.16
2023-04-07T08:23:42.810Z,72.63
2023-04-07T08:26:11.441Z,72.90
2023-04-07T08:28:41.857Z,72.46
2023-04-07T08:31:10.581Z,74.24
2023-04-07T08:33:39.332Z,73.97
2023-04-07T08:36:08.039Z,72.36
2023-04-07T08:38:36.541Z,70.84
2023-04-07T08:41:08.923Z,70.08
2023-04-07T08:43:38.173Z,70.95
2023-04-07T08:46:09.542Z,71.87
2023-04-07T08:48:38.514Z,72.41
2023-04-07T08:51:08.720Z,71.91
2023-04-07T08:53:52.782Z,71.50
2023-04-07T08:56:21.720Z,69.11
2023-04-07T08:58:50.251Z,68.59
2023-04-07T09:01:18.828Z,69.08
2023-04-07T09:03:49.193Z,69.51
2023-04-07T09:06:17.854Z,69.64
2023-04-07T09:08:46.731Z,69.24
2023-04-07T09:11:15.115Z,69.44
2023-04-07T09:13:43.803Z,70.89
2023-04-07T09:16:14.285Z,72.04
2023-04-07T09:19:00.376Z,71.44
2023-04-07T09:21:53.194Z,70.09
2023-04-07T09:24:23.380Z,69.29
2023-04-07T09:26:52.700Z,68.83
2023-04-07T09:29:21.788Z,69.06
2023-04-07T09:31:52.276Z,69.46
2023-04-07T09:34:34.738Z,70.05
2023-04-07T09:37:04.047Z,69.62
2023-04-07T09:39:33.243Z,71.11
2023-04-07T09:42:07.176Z,70.63
2023-04-07T09:44:40.329Z,69.25
2023-04-07T09:47:08.695Z,68.85
2023-04-07T09:49:50.453Z,69.00
2023-04-07T09:52:20.809Z,69.67
2023-04-07T09:54:49.440Z,69.24
2023-04-07T09:57:19.518Z,70.39
2023-04-07T09:59:51.789Z,71.03
2023-04-07T10:02:20.097Z,70.13
2023-04-07T10:04:48.750Z,70.49
2023-04-07T10:07:17.244Z,70.74
2023-04-07T10:09:47.711Z,69.43
2023-04-07T10:12:18.391Z,68.49
2023-04-07T10:14:47.386Z,68.79
2023-04-07T10:17:19.432Z,69.47
2023-04-07T10:19:47.930Z,70.45
2023-04-07T10:22:16.519Z,70.67
2023-04-07T10:24:55.489Z,71.44
2023-04-07T10:27:29.717Z,70.27
2023-04-07T10:29:58.549Z,68.98
2023-04-07T10:32:27.580Z,67.90
2023-04-07T10:34:59.740Z,67.82
2023-04-07T10:37:28.289Z,67.63
2023-04-07T10:40:19.846Z,69.16
2023-04-07T10:42:48.549Z,68.18
2023-04-07T10:45:16.960Z,69.18
2023-04-07T10:47:58.309Z,69.96
2023-04-07T10:50:28.789Z,70.29
2023-04-07T10:53:13.802Z,70.72
2023-04-07T10:55:43.884Z,69.16
2023-04-07T10:58:25.365Z,68.29
2023-04-07T11:01:12.708Z,68.55
2023-04-07T11:03:42.738Z,67.91
2023-04-07T11:06:13.022Z,69.08
2023-04-07T11:08:42.822Z,69.03
2023-04-07T11:11:14.519Z,69.16
2023-04-07T11:13:46.923Z,69.45
2023-04-07T11:16:16.699Z,70.22
2023-04-07T11:18:46.591Z,68.88
2023-04-07T11:21:18.566Z,67.00
2023-04-07T11:23:47.764Z,66.02
2023-04-07T11:26:17.052Z,64.95
2023-04-07T11:28:55.260Z,64.88
2023-04-07T11:31:31.601Z,65.60
2023-04-07T11:34:06.107Z,65.03
2023-04-07T11:36:37.864Z,66.84
2023-04-07T11:39:18.163Z,66.50
2023-04-07T11:41:47.830Z,67.33
2023-04-07T11:44:16.721Z,66.94
2023-04-07T11:46:55.196Z,66.82
2023-04-07T11:49:28.587Z,66.74
2023-04-07T11:52:07.588Z,67.94
2023-04-07T11:54:43.251Z,68.04
2023-04-07T11:57:14.850Z,68.00
2023-04-07T11:59:44.034Z,67.48
2023-04-07T12:02:33.162Z,66.00
2023-04-07T12:05:01.818Z,65.08
2023-04-07T12:07:33.402Z,64.78
2023-04-07T12:10:27.133Z,65.07
2023-04-07T12:12:58.112Z,66.33
2023-04-07T12:15:28.652Z,66.55
2023-04-07T12:17:57.203Z,67.16
2023-04-07T12:20:27.560Z,67.62
2023-04-07T12:23:00.235Z,68.12
2023-04-07T12:25:29.031Z,67.67
2023-04-07T12:28:02.414Z,67.76
2023-04-07T12:30:31.407Z,68.32
2023-04-07T12:33:00.223Z,68.40
2023-04-07T12:35:29.140Z,67.68
2023-04-07T12:38:01.154Z,66.40
2023-04-07T12:40:35.315Z,65.38
2023-04-07T12:43:05.508Z,65.11
2023-04-07T12:45:33.879Z,65.36
2023-04-07T12:48:02.727Z,66.35
2023-04-07T12:50:31.559Z,66.54
2023-04-07T12:53:03.721Z,67.00
2023-04-07T12:55:36.792Z,67.05
2023-04-07T12:58:09.713Z,68.30
2023-04-07T13:00:38.273Z,68.68
2023-04-07T13:03:13.149Z,68.33
2023-04-07T13:05:42.200Z,68.78
2023-04-07T13:08:11.084Z,67.88
2023-04-07T13:10:39.429Z,65.53
2023-04-07T13:13:14.328Z,64.59
2023-04-07T13:15:43.202Z,64.88
2023-04-07T13:18:12.178Z,63.80
2023-04-07T13:20:41.916Z,64.57
2023-04-07T13:23:10.579Z,65.87
2023-04-07T13:25:39.166Z,66.35
2023-04-07T13:28:07.971Z,66.54
2023-04-07T13:30:36.745Z,66.62
2023-04-07T13:33:06.681Z,67.16
2023-04-07T13:35:36.174Z,67.81
2023-04-07T13:38:04.948Z,67.87
2023-04-07T13:40:33.610Z,67.94
2023-04-07T13:43:02.216Z,67.80
2023-04-07T13:45:30.690Z,67.63
2023-04-07T13:47:59.647Z,68.28
2023-04-07T13:50:28.016Z,66.64
2023-04-07T13:52:56.897Z,64.37
2023-04-07T13:55:25.201Z,63.74
2023-04-07T13:57:53.811Z,63.15
2023-04-07T14:00:22.597Z,63.66
2023-04-07T14:03:09.698Z,63.19
2023-04-07T14:05:38.399Z,62.71
2023-04-07T14:15:43.461Z,62.71
2023-04-07T14:18:12.427Z,63.01
2023-04-07T14:20:41.516Z,63.51
2023-04-07T14:23:10.972Z,63.52
2023-04-07T14:25:39.290Z,62.85
2023-04-07T14:28:08.345Z,62.89
2023-04-07T14:30:38.941Z,63.73
2023-04-07T14:33:08.487Z,63.39
2023-04-07T14:35:37.934Z,63.33
2023-04-07T14:38:06.875Z,63.52
2023-04-07T14:40:35.868Z,63.73
2023-04-07T14:43:07.388Z,63.92
2023-04-07T14:45:36.635Z,64.65
2023-04-07T14:48:07.001Z,64.56
2023-04-07T14:50:35.428Z,63.98
2023-04-07T14:53:05.443Z,64.14
2023-04-07T14:55:34.651Z,64.87
2023-04-07T14:58:03.125Z,65.11
2023-04-07T15:00:33.311Z,64.72
2023-04-07T15:03:16.731Z,64.22
2023-04-07T15:05:45.687Z,64.68
2023-04-07T15:08:14.356Z,64.85
2023-04-07T15:10:42.741Z,64.16
2023-04-07T15:13:11.428Z,64.35
2023-04-07T15:15:39.797Z,65.02
2023-04-07T15:18:08.367Z,65.13
2023-04-07T15:20:37.073Z,66.01
2023-04-07T15:23:05.657Z,66.82
2023-04-07T15:25:35.283Z,66.88
2023-04-07T15:28:03.845Z,65.85
2023-04-07T15:30:34.682Z,64.24
2023-04-07T15:33:04.656Z,63.09
2023-04-07T15:35:34.027Z,63.69
2023-04-07T15:38:02.926Z,64.15
2023-04-07T15:40:31.978Z,63.86
2023-04-07T15:43:01.073Z,64.54
2023-04-07T15:45:30.305Z,64.60
2023-04-07T15:47:58.765Z,65.14
2023-04-07T15:50:30.094Z,65.84
2023-04-07T15:52:59.322Z,66.05
2023-04-07T15:55:28.394Z,66.93
2023-04-07T15:57:56.654Z,66.86
2023-04-07T16:00:28.475Z,67.33
2023-04-07T16:02:57.949Z,67.83
2023-04-07T16:05:27.129Z,67.52
2023-04-07T16:07:55.940Z,67.96
2023-04-07T16:10:29.549Z,68.60
2023-04-07T16:13:12.081Z,67.40
2023-04-07T16:15:58.594Z,65.98
2023-04-07T16:35:45.090Z,70.67
2023-04-07T16:38:15.296Z,70.95
2023-04-07T16:41:00.689Z,71.14
2023-04-07T16:43:37.021Z,71.50
2023-04-07T16:46:06.694Z,70.86
2023-04-07T16:48:35.433Z,69.32
2023-04-07T16:51:06.669Z,68.30
2023-04-07T16:53:35.767Z,68.28
2023-04-07T16:56:04.660Z,68.02
2023-04-07T16:58:33.951Z,68.88
2023-04-07T17:01:02.658Z,69.74
2023-04-07T17:03:34.348Z,70.44
2023-04-07T17:06:05.717Z,71.05
2023-04-07T17:08:35.339Z,71.86
2023-04-07T17:11:08.446Z,72.85
2023-04-07T17:13:37.942Z,74.00
2023-04-07T17:16:11.344Z,73.69
2023-04-07T17:18:40.227Z,71.62
2023-04-07T17:21:09.223Z,70.96
2023-04-07T17:23:42.815Z,70.86
2023-04-07T17:29:07.125Z,72.09
2023-04-07T17:31:36.306Z,72.77
2023-04-07T17:35:36.313Z,74.32
2023-04-07T17:38:04.924Z,75.51
2023-04-07T17:40:33.701Z,75.63
2023-04-07T17:43:02.089Z,75.72
2023-04-07T17:45:31.099Z,73.91
2023-04-07T17:48:03.852Z,72.93
2023-04-07T17:50:32.961Z,72.97
2023-04-07T17:53:01.260Z,73.39
2023-04-07T17:55:30.217Z,73.83
2023-04-07T17:58:01.333Z,73.79
2023-04-07T18:00:29.984Z,74.04
2023-04-07T18:03:14.598Z,75.78
2023-04-07T18:05:45.207Z,76.67
2023-04-07T18:08:13.625Z,77.04
2023-04-07T18:10:42.636Z,75.36
2023-04-07T18:13:10.886Z,74.61
2023-04-07T18:15:39.500Z,74.47
2023-04-07T18:18:08.505Z,74.87
2023-04-07T18:20:38.588Z,74.98
2023-04-07T18:23:08.189Z,75.46
2023-04-07T18:25:37.904Z,75.92
2023-04-07T18:28:06.630Z,76.01
2023-04-07T18:30:35.608Z,76.46
2023-04-07T18:33:04.662Z,75.90
2023-04-07T18:35:33.485Z,75.46
2023-04-07T18:38:04.833Z,75.45
2023-04-07T18:40:34.617Z,76.06
2023-04-07T18:43:04.327Z,77.02
2023-04-07T18:45:37.057Z,77.49
2023-04-07T18:48:06.770Z,78.12
2023-04-07T18:50:35.304Z,78.90
2023-04-07T18:53:03.909Z,78.67
2023-04-07T18:55:32.906Z,77.51
2023-04-07T18:58:01.707Z,76.82
2023-04-07T19:00:36.202Z,77.02
2023-04-07T19:03:05.281Z,77.60
2023-04-07T19:05:34.275Z,77.97
2023-04-07T19:08:02.774Z,78.77
2023-04-07T19:10:32.972Z,79.37
2023-04-07T19:13:02.175Z,79.95
2023-04-07T19:15:36.625Z,80.44
2023-04-07T19:18:05.593Z,79.07
2023-04-07T19:20:34.275Z,78.40
2023-04-07T19:23:03.069Z,78.23
2023-04-07T19:25:31.657Z,78.41
2023-04-07T19:28:00.780Z,78.76
2023-04-07T19:30:30.048Z,79.41
2023-04-07T19:32:59.453Z,80.49
2023-04-07T19:35:34.203Z,80.05
2023-04-07T19:38:03.185Z,78.95
2023-04-07T19:40:33.499Z,78.93
2023-04-07T19:43:01.941Z,79.15
2023-04-07T19:45:30.701Z,80.09
2023-04-07T19:48:01.507Z,80.82
2023-04-07T19:50:30.330Z,81.26
2023-04-07T19:52:59.027Z,81.91
2023-04-07T19:55:27.667Z,82.97
2023-04-07T19:57:57.071Z,83.19
2023-04-07T20:00:30.683Z,81.86
2023-04-07T20:03:11.465Z,81.66
2023-04-07T20:05:40.106Z,81.56
2023-04-07T20:08:09.636Z,82.15
2023-04-07T20:10:37.981Z,83.59
2023-04-07T20:13:11.892Z,87.33
2023-04-07T20:15:40.530Z,87.71
2023-04-07T20:18:09.505Z,85.25
2023-04-07T20:20:41.742Z,83.07
2023-04-07T20:23:10.460Z,82.19
2023-04-07T20:25:39.009Z,81.55
2023-04-07T20:28:09.028Z,81.97
2023-04-07T20:30:37.844Z,83.50
2023-04-07T20:33:14.395Z,85.02
2023-04-07T20:35:42.761Z,84.84
2023-04-07T20:38:11.662Z,83.48
2023-04-07T20:40:43.747Z,83.54
2023-04-07T20:43:13.147Z,83.85
2023-04-07T20:45:41.809Z,83.81
2023-04-07T20:48:10.808Z,83.32
2023-04-07T20:50:39.902Z,82.91
2023-04-07T20:53:16.975Z,83.45
2023-04-07T20:55:45.784Z,83.70
2023-04-07T20:58:14.249Z,81.74
2023-04-07T21:00:42.828Z,81.52
2023-04-07T21:03:13.273Z,81.83
2023-04-07T21:05:43.579Z,82.91
2023-04-07T21:08:14.349Z,82.89
2023-04-07T21:10:43.817Z,83.02
2023-04-07T21:13:12.608Z,84.00
2023-04-07T21:15:44.199Z,85.79
2023-04-07T21:18:13.286Z,84.45
2023-04-07T21:20:41.840Z,85.33
2023-04-07T21:23:10.746Z,85.50
2023-04-07T21:25:39.618Z,85.87
2023-04-07T21:28:10.776Z,87.94
2023-04-07T21:30:42.752Z,88.35
2023-04-07T21:33:13.766Z,87.85
2023-04-07T21:35:43.075Z,85.47
2023-04-07T21:38:11.777Z,84.47
2023-04-07T21:40:42.493Z,86.03
2023-04-07T21:43:12.491Z,87.47
2023-04-07T21:45:41.206Z,89.07
2023-04-07T21:48:09.671Z,91.55
2023-04-07T21:50:38.861Z,90.83
2023-04-07T21:53:09.202Z,89.24
2023-04-07T21:55:37.685Z,87.87
2023-04-07T21:58:06.283Z,88.14
2023-04-07T22:00:36.687Z,89.69
2023-04-07T22:03:07.218Z,90.80
2023-04-07T22:05:38.354Z,89.93
2023-04-07T22:08:06.952Z,88.05
2023-04-07T22:10:35.512Z,86.15
2023-04-07T22:13:07.380Z,84.68
2023-04-07T22:15:35.956Z,84.27
2023-04-07T22:18:05.115Z,84.21
2023-04-07T22:20:33.781Z,84.39
2023-04-07T22:23:02.521Z,85.00
2023-04-07T22:25:31.116Z,84.87
2023-04-07T22:27:59.904Z,83.45
2023-04-07T22:30:28.271Z,82.58
2023-04-07T22:32:58.153Z,81.68
2023-04-07T22:35:27.141Z,82.07
2023-04-07T22:37:57.412Z,82.66
2023-04-07T22:40:26.245Z,83.36
2023-04-07T22:42:54.777Z,84.31
2023-04-07T22:45:23.452Z,85.11
2023-04-07T22:47:52.017Z,84.26
2023-04-07T22:50:24.616Z,83.63
2023-04-07T22:52:54.107Z,83.43
2023-04-07T22:55:22.617Z,83.79
2023-04-07T22:57:51.196Z,84.15
2023-04-07T23:00:19.601Z,84.84
2023-04-07T23:02:50.864Z,85.91
2023-04-07T23:05:20.112Z,85.31
2023-04-07T23:07:48.631Z,83.56
2023-04-07T23:10:19.231Z,83.05
2023-04-07T23:12:53.102Z,83.54
2023-04-07T23:15:21.339Z,84.05
2023-04-07T23:17:50.511Z,84.27
2023-04-07T23:20:19.290Z,84.74
2023-04-07T23:22:50.053Z,85.59
2023-04-07T23:25:18.800Z,85.62
2023-04-07T23:27:47.184Z,84.44
2023-04-07T23:30:17.052Z,83.62
2023-04-07T23:32:46.433Z,83.47
2023-04-07T23:35:14.980Z,83.65
2023-04-07T23:37:43.510Z,84.07
2023-04-07T23:40:13.026Z,84.50
2023-04-07T23:42:41.525Z,84.95
2023-04-07T23:45:10.745Z,85.15
2023-04-07T23:47:39.572Z,84.05
2023-04-07T23:50:08.953Z,83.39
2023-04-07T23:52:37.535Z,83.33
2023-04-07T23:55:08.465Z,83.98
2023-04-07T23:57:37.267Z,84.36
